sensor_id;sensor_type;location;lat;lon;timestamp;P1;durP1;ratioP1;P2;durP2;ratioP2
3006;SDS011;1513;47.650;10.720;2022-07-09T00:02:40;5.33;;;3.23;;
3006;SDS011;1513;47.650;10.720;2022-07-09T00:05:43;4.27;;;3.80;;
3006;SDS011;1513;47.650;10.720;2022-07-09T00:08:47;4.60;;;3.43;;
3006;SDS011;1513;47.650;10.720;2022-07-09T00:11:50;8.83;;;4.37;;
3006;SDS011;1513;47.650;10.720;2022-07-09T00:14:55;6.33;;;3.80;;
3006;SDS011;1513;47.650;10.720;2022-07-09T00:17:58;5.60;;;3.50;;
3006;SDS011;1513;47.650;10.720;2022-07-09T00:21:01;5.80;;;3.07;;
3006;SDS011;1513;47.650;10.720;2022-07-09T00:24:05;5.30;;;3.60;;
3006;SDS011;1513;47.650;10.720;2022-07-09T00:27:08;5.63;;;3.70;;
3006;SDS011;1513;47.650;10.720;2022-07-09T00:30:12;5.93;;;3.90;;
3006;SDS011;1513;47.650;10.720;2022-07-09T00:33:15;8.47;;;4.77;;
3006;SDS011;1513;47.650;10.720;2022-07-09T00:36:19;5.73;;;3.97;;
3006;SDS011;1513;47.650;10.720;2022-07-09T00:39:22;5.37;;;4.53;;
3006;SDS011;1513;47.650;10.720;2022-07-09T00:42:26;8.33;;;4.60;;
3006;SDS011;1513;47.650;10.720;2022-07-09T00:45:29;7.63;;;4.80;;
3006;SDS011;1513;47.650;10.720;2022-07-09T00:48:32;4.57;;;3.50;;
3006;SDS011;1513;47.650;10.720;2022-07-09T00:51:36;3.90;;;3.50;;
3006;SDS011;1513;47.650;10.720;2022-07-09T00:54:40;6.07;;;3.70;;
3006;SDS011;1513;47.650;10.720;2022-07-09T00:57:45;4.60;;;3.80;;
3006;SDS011;1513;47.650;10.720;2022-07-09T01:00:48;7.23;;;4.20;;
3006;SDS011;1513;47.650;10.720;2022-07-09T01:03:52;6.13;;;4.90;;
3006;SDS011;1513;47.650;10.720;2022-07-09T01:06:56;8.53;;;3.97;;
3006;SDS011;1513;47.650;10.720;2022-07-09T01:10:03;4.57;;;3.57;;
3006;SDS011;1513;47.650;10.720;2022-07-09T01:13:06;4.57;;;3.70;;
3006;SDS011;1513;47.650;10.720;2022-07-09T01:16:11;4.83;;;3.40;;
3006;SDS011;1513;47.650;10.720;2022-07-09T01:19:18;5.10;;;3.70;;
3006;SDS011;1513;47.650;10.720;2022-07-09T01:22:21;4.00;;;3.57;;
3006;SDS011;1513;47.650;10.720;2022-07-09T01:25:35;7.13;;;4.20;;
3006;SDS011;1513;47.650;10.720;2022-07-09T01:28:43;7.00;;;3.80;;
3006;SDS011;1513;47.650;10.720;2022-07-09T01:31:47;11.90;;;4.77;;
3006;SDS011;1513;47.650;10.720;2022-07-09T01:34:50;5.00;;;4.30;;
3006;SDS011;1513;47.650;10.720;2022-07-09T01:37:54;14.43;;;4.27;;
3006;SDS011;1513;47.650;10.720;2022-07-09T01:40:58;8.60;;;4.87;;
3006;SDS011;1513;47.650;10.720;2022-07-09T01:44:01;6.47;;;4.63;;
3006;SDS011;1513;47.650;10.720;2022-07-09T01:47:05;7.57;;;5.60;;
3006;SDS011;1513;47.650;10.720;2022-07-09T01:50:09;5.97;;;4.50;;
3006;SDS011;1513;47.650;10.720;2022-07-09T01:53:13;7.40;;;4.40;;
3006;SDS011;1513;47.650;10.720;2022-07-09T01:56:16;6.27;;;4.63;;
3006;SDS011;1513;47.650;10.720;2022-07-09T01:59:20;5.17;;;4.30;;
3006;SDS011;1513;47.650;10.720;2022-07-09T02:02:23;6.77;;;4.27;;
3006;SDS011;1513;47.650;10.720;2022-07-09T02:05:27;7.67;;;4.60;;
3006;SDS011;1513;47.650;10.720;2022-07-09T02:08:32;9.13;;;4.77;;
3006;SDS011;1513;47.650;10.720;2022-07-09T02:11:35;10.03;;;4.93;;
3006;SDS011;1513;47.650;10.720;2022-07-09T02:14:39;5.63;;;4.63;;
3006;SDS011;1513;47.650;10.720;2022-07-09T02:17:43;8.50;;;5.10;;
3006;SDS011;1513;47.650;10.720;2022-07-09T02:20:46;5.20;;;4.63;;
3006;SDS011;1513;47.650;10.720;2022-07-09T02:23:49;6.07;;;4.53;;
3006;SDS011;1513;47.650;10.720;2022-07-09T02:26:53;6.60;;;4.50;;
3006;SDS011;1513;47.650;10.720;2022-07-09T02:29:56;6.57;;;4.50;;
3006;SDS011;1513;47.650;10.720;2022-07-09T02:33:00;6.50;;;5.10;;
3006;SDS011;1513;47.650;10.720;2022-07-09T02:36:04;5.77;;;4.57;;
3006;SDS011;1513;47.650;10.720;2022-07-09T02:39:08;6.30;;;4.80;;
3006;SDS011;1513;47.650;10.720;2022-07-09T02:42:12;6.87;;;4.10;;
3006;SDS011;1513;47.650;10.720;2022-07-09T02:45:15;5.67;;;4.37;;
3006;SDS011;1513;47.650;10.720;2022-07-09T02:48:19;7.10;;;4.50;;
3006;SDS011;1513;47.650;10.720;2022-07-09T02:51:22;9.50;;;5.50;;
3006;SDS011;1513;47.650;10.720;2022-07-09T02:54:25;9.10;;;6.00;;
3006;SDS011;1513;47.650;10.720;2022-07-09T02:57:29;8.80;;;6.00;;
3006;SDS011;1513;47.650;10.720;2022-07-09T03:00:33;14.63;;;6.23;;
3006;SDS011;1513;47.650;10.720;2022-07-09T03:03:36;13.47;;;4.90;;
3006;SDS011;1513;47.650;10.720;2022-07-09T03:06:40;8.57;;;5.60;;
3006;SDS011;1513;47.650;10.720;2022-07-09T03:09:43;6.60;;;5.40;;
3006;SDS011;1513;47.650;10.720;2022-07-09T03:12:47;6.77;;;5.47;;
3006;SDS011;1513;47.650;10.720;2022-07-09T03:15:50;10.70;;;5.93;;
3006;SDS011;1513;47.650;10.720;2022-07-09T03:18:53;8.10;;;5.70;;
3006;SDS011;1513;47.650;10.720;2022-07-09T03:21:57;11.90;;;4.93;;
3006;SDS011;1513;47.650;10.720;2022-07-09T03:25:01;9.37;;;5.83;;
3006;SDS011;1513;47.650;10.720;2022-07-09T03:28:05;6.57;;;5.33;;
3006;SDS011;1513;47.650;10.720;2022-07-09T03:31:09;11.10;;;5.90;;
3006;SDS011;1513;47.650;10.720;2022-07-09T03:34:12;7.97;;;6.10;;
3006;SDS011;1513;47.650;10.720;2022-07-09T03:37:16;8.33;;;6.07;;
3006;SDS011;1513;47.650;10.720;2022-07-09T03:40:19;8.50;;;5.50;;
3006;SDS011;1513;47.650;10.720;2022-07-09T03:43:23;10.63;;;6.57;;
3006;SDS011;1513;47.650;10.720;2022-07-09T03:46:26;10.30;;;6.00;;
3006;SDS011;1513;47.650;10.720;2022-07-09T03:49:31;9.40;;;5.93;;
3006;SDS011;1513;47.650;10.720;2022-07-09T03:52:35;7.10;;;5.70;;
3006;SDS011;1513;47.650;10.720;2022-07-09T03:55:39;12.77;;;5.73;;
3006;SDS011;1513;47.650;10.720;2022-07-09T03:58:42;5.40;;;4.90;;
3006;SDS011;1513;47.650;10.720;2022-07-09T04:01:46;7.90;;;5.70;;
3006;SDS011;1513;47.650;10.720;2022-07-09T04:04:50;9.50;;;4.70;;
3006;SDS011;1513;47.650;10.720;2022-07-09T04:07:53;11.90;;;5.43;;
3006;SDS011;1513;47.650;10.720;2022-07-09T04:10:57;10.60;;;5.30;;
3006;SDS011;1513;47.650;10.720;2022-07-09T04:14:00;7.67;;;5.70;;
3006;SDS011;1513;47.650;10.720;2022-07-09T04:17:06;6.93;;;5.30;;
3006;SDS011;1513;47.650;10.720;2022-07-09T04:20:09;9.57;;;5.40;;
3006;SDS011;1513;47.650;10.720;2022-07-09T04:23:13;5.73;;;5.13;;
3006;SDS011;1513;47.650;10.720;2022-07-09T04:26:17;10.40;;;5.93;;
3006;SDS011;1513;47.650;10.720;2022-07-09T04:29:21;11.30;;;6.40;;
3006;SDS011;1513;47.650;10.720;2022-07-09T04:32:25;9.53;;;6.40;;
3006;SDS011;1513;47.650;10.720;2022-07-09T04:35:29;8.97;;;5.50;;
3006;SDS011;1513;47.650;10.720;2022-07-09T04:38:32;7.50;;;4.30;;
3006;SDS011;1513;47.650;10.720;2022-07-09T04:41:36;5.43;;;4.67;;
3006;SDS011;1513;47.650;10.720;2022-07-09T04:44:40;5.70;;;5.07;;
3006;SDS011;1513;47.650;10.720;2022-07-09T04:47:45;6.37;;;4.10;;
3006;SDS011;1513;47.650;10.720;2022-07-09T04:50:49;11.20;;;5.33;;
3006;SDS011;1513;47.650;10.720;2022-07-09T04:53:52;8.33;;;5.90;;
3006;SDS011;1513;47.650;10.720;2022-07-09T04:56:56;8.27;;;5.87;;
3006;SDS011;1513;47.650;10.720;2022-07-09T04:59:59;9.00;;;6.73;;
3006;SDS011;1513;47.650;10.720;2022-07-09T05:03:03;8.27;;;6.40;;
3006;SDS011;1513;47.650;10.720;2022-07-09T05:06:07;9.37;;;6.43;;
3006;SDS011;1513;47.650;10.720;2022-07-09T05:09:10;6.47;;;5.23;;
3006;SDS011;1513;47.650;10.720;2022-07-09T05:12:14;8.97;;;6.17;;
3006;SDS011;1513;47.650;10.720;2022-07-09T05:15:17;6.30;;;5.37;;
3006;SDS011;1513;47.650;10.720;2022-07-09T05:18:21;9.87;;;5.70;;
3006;SDS011;1513;47.650;10.720;2022-07-09T05:21:24;7.33;;;5.13;;
3006;SDS011;1513;47.650;10.720;2022-07-09T05:24:28;6.53;;;5.40;;
3006;SDS011;1513;47.650;10.720;2022-07-09T05:27:31;5.30;;;4.80;;
3006;SDS011;1513;47.650;10.720;2022-07-09T05:30:35;6.57;;;5.23;;
3006;SDS011;1513;47.650;10.720;2022-07-09T05:33:39;5.37;;;4.87;;
3006;SDS011;1513;47.650;10.720;2022-07-09T05:36:43;8.37;;;4.60;;
3006;SDS011;1513;47.650;10.720;2022-07-09T05:39:46;8.63;;;5.20;;
3006;SDS011;1513;47.650;10.720;2022-07-09T05:42:50;8.27;;;5.20;;
3006;SDS011;1513;47.650;10.720;2022-07-09T05:45:53;7.00;;;4.63;;
3006;SDS011;1513;47.650;10.720;2022-07-09T05:48:56;8.60;;;4.97;;
3006;SDS011;1513;47.650;10.720;2022-07-09T05:52:00;5.97;;;4.43;;
3006;SDS011;1513;47.650;10.720;2022-07-09T05:55:04;10.50;;;4.97;;
3006;SDS011;1513;47.650;10.720;2022-07-09T05:58:08;6.23;;;5.03;;
3006;SDS011;1513;47.650;10.720;2022-07-09T06:01:12;5.60;;;3.73;;
3006;SDS011;1513;47.650;10.720;2022-07-09T06:04:16;5.17;;;4.20;;
3006;SDS011;1513;47.650;10.720;2022-07-09T06:07:19;5.93;;;4.33;;
3006;SDS011;1513;47.650;10.720;2022-07-09T06:10:22;4.57;;;3.80;;
3006;SDS011;1513;47.650;10.720;2022-07-09T06:13:26;3.80;;;3.50;;
3006;SDS011;1513;47.650;10.720;2022-07-09T06:16:29;6.10;;;3.70;;
3006;SDS011;1513;47.650;10.720;2022-07-09T06:19:33;4.37;;;3.90;;
3006;SDS011;1513;47.650;10.720;2022-07-09T06:22:37;5.20;;;3.27;;
3006;SDS011;1513;47.650;10.720;2022-07-09T06:25:41;3.90;;;3.13;;
3006;SDS011;1513;47.650;10.720;2022-07-09T06:28:44;4.30;;;3.23;;
3006;SDS011;1513;47.650;10.720;2022-07-09T06:31:48;4.20;;;3.73;;
3006;SDS011;1513;47.650;10.720;2022-07-09T06:34:52;3.90;;;3.60;;
3006;SDS011;1513;47.650;10.720;2022-07-09T06:37:56;4.57;;;3.63;;
3006;SDS011;1513;47.650;10.720;2022-07-09T06:40:59;4.37;;;3.23;;
3006;SDS011;1513;47.650;10.720;2022-07-09T06:44:03;5.50;;;3.80;;
3006;SDS011;1513;47.650;10.720;2022-07-09T06:47:06;4.77;;;4.37;;
3006;SDS011;1513;47.650;10.720;2022-07-09T06:50:10;4.83;;;4.40;;
3006;SDS011;1513;47.650;10.720;2022-07-09T06:53:14;3.90;;;3.53;;
3006;SDS011;1513;47.650;10.720;2022-07-09T06:56:18;6.43;;;4.10;;
3006;SDS011;1513;47.650;10.720;2022-07-09T06:59:22;5.70;;;4.50;;
3006;SDS011;1513;47.650;10.720;2022-07-09T07:02:26;4.70;;;4.30;;
3006;SDS011;1513;47.650;10.720;2022-07-09T07:05:29;5.00;;;4.60;;
3006;SDS011;1513;47.650;10.720;2022-07-09T07:08:33;6.00;;;4.07;;
3006;SDS011;1513;47.650;10.720;2022-07-09T07:11:36;4.23;;;3.90;;
3006;SDS011;1513;47.650;10.720;2022-07-09T07:14:40;5.20;;;4.47;;
3006;SDS011;1513;47.650;10.720;2022-07-09T07:17:44;4.03;;;3.63;;
3006;SDS011;1513;47.650;10.720;2022-07-09T07:20:48;3.90;;;3.50;;
3006;SDS011;1513;47.650;10.720;2022-07-09T07:23:52;4.30;;;3.10;;
3006;SDS011;1513;47.650;10.720;2022-07-09T07:26:55;3.23;;;3.03;;
3006;SDS011;1513;47.650;10.720;2022-07-09T07:30:00;4.53;;;3.30;;
3006;SDS011;1513;47.650;10.720;2022-07-09T07:33:04;6.10;;;3.60;;
3006;SDS011;1513;47.650;10.720;2022-07-09T07:36:07;3.10;;;2.80;;
3006;SDS011;1513;47.650;10.720;2022-07-09T07:39:11;6.00;;;3.10;;
3006;SDS011;1513;47.650;10.720;2022-07-09T07:42:14;4.00;;;2.40;;
3006;SDS011;1513;47.650;10.720;2022-07-09T07:45:18;2.13;;;1.90;;
3006;SDS011;1513;47.650;10.720;2022-07-09T07:48:22;5.17;;;1.93;;
3006;SDS011;1513;47.650;10.720;2022-07-09T07:51:25;2.60;;;2.00;;
3006;SDS011;1513;47.650;10.720;2022-07-09T07:54:29;3.57;;;2.83;;
3006;SDS011;1513;47.650;10.720;2022-07-09T07:57:32;2.43;;;2.23;;
3006;SDS011;1513;47.650;10.720;2022-07-09T08:00:36;2.63;;;2.40;;
3006;SDS011;1513;47.650;10.720;2022-07-09T08:03:39;2.40;;;2.20;;
3006;SDS011;1513;47.650;10.720;2022-07-09T08:06:43;4.00;;;2.30;;
3006;SDS011;1513;47.650;10.720;2022-07-09T08:09:46;2.20;;;2.00;;
3006;SDS011;1513;47.650;10.720;2022-07-09T08:12:50;3.80;;;2.40;;
3006;SDS011;1513;47.650;10.720;2022-07-09T08:15:54;3.33;;;2.27;;
3006;SDS011;1513;47.650;10.720;2022-07-09T08:18:58;7.20;;;2.53;;
3006;SDS011;1513;47.650;10.720;2022-07-09T08:22:02;5.23;;;2.17;;
3006;SDS011;1513;47.650;10.720;2022-07-09T08:25:05;3.10;;;1.87;;
3006;SDS011;1513;47.650;10.720;2022-07-09T08:28:09;3.40;;;2.40;;
3006;SDS011;1513;47.650;10.720;2022-07-09T08:31:14;1.87;;;1.70;;
3006;SDS011;1513;47.650;10.720;2022-07-09T08:34:18;3.70;;;2.17;;
3006;SDS011;1513;47.650;10.720;2022-07-09T08:37:21;4.93;;;2.40;;
3006;SDS011;1513;47.650;10.720;2022-07-09T08:40:25;1.90;;;1.70;;
3006;SDS011;1513;47.650;10.720;2022-07-09T08:43:29;2.07;;;1.90;;
3006;SDS011;1513;47.650;10.720;2022-07-09T08:46:35;5.47;;;2.17;;
3006;SDS011;1513;47.650;10.720;2022-07-09T08:49:39;7.97;;;2.60;;
3006;SDS011;1513;47.650;10.720;2022-07-09T08:52:44;4.23;;;2.10;;
3006;SDS011;1513;47.650;10.720;2022-07-09T08:55:47;3.77;;;2.20;;
3006;SDS011;1513;47.650;10.720;2022-07-09T08:58:51;2.43;;;2.03;;
3006;SDS011;1513;47.650;10.720;2022-07-09T09:01:54;4.10;;;2.40;;
3006;SDS011;1513;47.650;10.720;2022-07-09T09:04:58;3.73;;;1.90;;
3006;SDS011;1513;47.650;10.720;2022-07-09T09:08:15;4.23;;;2.20;;
3006;SDS011;1513;47.650;10.720;2022-07-09T09:11:22;5.20;;;2.50;;
3006;SDS011;1513;47.650;10.720;2022-07-09T09:14:26;2.07;;;1.87;;
3006;SDS011;1513;47.650;10.720;2022-07-09T09:17:32;3.97;;;2.03;;
3006;SDS011;1513;47.650;10.720;2022-07-09T09:20:36;2.60;;;1.90;;
3006;SDS011;1513;47.650;10.720;2022-07-09T09:26:44;8.40;;;2.90;;
3006;SDS011;1513;47.650;10.720;2022-07-09T09:29:48;4.70;;;3.17;;
3006;SDS011;1513;47.650;10.720;2022-07-09T09:33:02;2.70;;;2.20;;
3006;SDS011;1513;47.650;10.720;2022-07-09T09:36:06;3.07;;;2.40;;
3006;SDS011;1513;47.650;10.720;2022-07-09T09:39:11;4.40;;;3.33;;
3006;SDS011;1513;47.650;10.720;2022-07-09T09:42:18;3.30;;;2.13;;
3006;SDS011;1513;47.650;10.720;2022-07-09T09:45:22;3.37;;;2.17;;
3006;SDS011;1513;47.650;10.720;2022-07-09T09:48:25;3.93;;;2.60;;
3006;SDS011;1513;47.650;10.720;2022-07-09T09:51:30;3.27;;;2.40;;
3006;SDS011;1513;47.650;10.720;2022-07-09T09:54:40;4.63;;;2.00;;
3006;SDS011;1513;47.650;10.720;2022-07-09T09:57:49;2.40;;;2.20;;
3006;SDS011;1513;47.650;10.720;2022-07-09T10:00:54;5.10;;;2.40;;
3006;SDS011;1513;47.650;10.720;2022-07-09T10:03:58;7.97;;;3.03;;
3006;SDS011;1513;47.650;10.720;2022-07-09T10:07:03;2.90;;;2.10;;
3006;SDS011;1513;47.650;10.720;2022-07-09T10:10:07;4.10;;;2.40;;
3006;SDS011;1513;47.650;10.720;2022-07-09T10:13:19;2.30;;;2.00;;
3006;SDS011;1513;47.650;10.720;2022-07-09T10:16:36;3.43;;;1.90;;
3006;SDS011;1513;47.650;10.720;2022-07-09T10:19:50;5.93;;;2.73;;
3006;SDS011;1513;47.650;10.720;2022-07-09T10:22:58;4.70;;;2.50;;
3006;SDS011;1513;47.650;10.720;2022-07-09T10:26:02;2.27;;;2.10;;
3006;SDS011;1513;47.650;10.720;2022-07-09T10:29:17;4.30;;;1.90;;
3006;SDS011;1513;47.650;10.720;2022-07-09T10:32:31;2.80;;;1.30;;
3006;SDS011;1513;47.650;10.720;2022-07-09T10:35:39;3.70;;;1.40;;
3006;SDS011;1513;47.650;10.720;2022-07-09T10:38:55;1.40;;;1.03;;
3006;SDS011;1513;47.650;10.720;2022-07-09T10:45:34;1.47;;;1.37;;
3006;SDS011;1513;47.650;10.720;2022-07-09T10:48:47;1.63;;;1.53;;
3006;SDS011;1513;47.650;10.720;2022-07-09T10:51:54;1.13;;;1.03;;
3006;SDS011;1513;47.650;10.720;2022-07-09T10:55:00;0.93;;;0.93;;
3006;SDS011;1513;47.650;10.720;2022-07-09T10:58:03;3.43;;;1.00;;
3006;SDS011;1513;47.650;10.720;2022-07-09T11:01:10;0.90;;;0.90;;
3006;SDS011;1513;47.650;10.720;2022-07-09T11:04:26;1.93;;;1.20;;
3006;SDS011;1513;47.650;10.720;2022-07-09T11:07:30;1.53;;;1.43;;
3006;SDS011;1513;47.650;10.720;2022-07-09T11:10:35;1.53;;;1.43;;
3006;SDS011;1513;47.650;10.720;2022-07-09T11:13:40;1.50;;;1.40;;
3006;SDS011;1513;47.650;10.720;2022-07-09T11:16:52;1.83;;;1.33;;
3006;SDS011;1513;47.650;10.720;2022-07-09T11:20:01;1.30;;;1.20;;
3006;SDS011;1513;47.650;10.720;2022-07-09T11:23:05;3.03;;;1.50;;
3006;SDS011;1513;47.650;10.720;2022-07-09T11:26:14;1.37;;;1.27;;
3006;SDS011;1513;47.650;10.720;2022-07-09T11:29:18;1.40;;;1.30;;
3006;SDS011;1513;47.650;10.720;2022-07-09T11:32:21;1.20;;;1.20;;
3006;SDS011;1513;47.650;10.720;2022-07-09T11:35:29;1.30;;;1.20;;
3006;SDS011;1513;47.650;10.720;2022-07-09T11:38:33;1.30;;;1.20;;
3006;SDS011;1513;47.650;10.720;2022-07-09T11:41:43;1.60;;;1.50;;
3006;SDS011;1513;47.650;10.720;2022-07-09T11:44:54;1.20;;;1.10;;
3006;SDS011;1513;47.650;10.720;2022-07-09T11:48:03;1.43;;;1.30;;
3006;SDS011;1513;47.650;10.720;2022-07-09T11:51:08;2.37;;;1.07;;
3006;SDS011;1513;47.650;10.720;2022-07-09T11:54:12;1.10;;;1.00;;
3006;SDS011;1513;47.650;10.720;2022-07-09T11:57:19;4.10;;;1.27;;
3006;SDS011;1513;47.650;10.720;2022-07-09T12:00:28;2.63;;;1.00;;
3006;SDS011;1513;47.650;10.720;2022-07-09T12:03:32;2.97;;;1.00;;
3006;SDS011;1513;47.650;10.720;2022-07-09T12:06:46;6.23;;;1.80;;
3006;SDS011;1513;47.650;10.720;2022-07-09T12:09:58;3.17;;;2.00;;
3006;SDS011;1513;47.650;10.720;2022-07-09T12:13:02;1.50;;;1.40;;
3006;SDS011;1513;47.650;10.720;2022-07-09T12:16:07;1.23;;;1.13;;
3006;SDS011;1513;47.650;10.720;2022-07-09T12:19:10;2.13;;;1.40;;
3006;SDS011;1513;47.650;10.720;2022-07-09T12:22:14;1.17;;;1.07;;
3006;SDS011;1513;47.650;10.720;2022-07-09T12:25:18;1.47;;;1.27;;
3006;SDS011;1513;47.650;10.720;2022-07-09T12:28:21;1.10;;;1.00;;
3006;SDS011;1513;47.650;10.720;2022-07-09T12:31:25;1.50;;;1.07;;
3006;SDS011;1513;47.650;10.720;2022-07-09T12:34:28;3.60;;;1.53;;
3006;SDS011;1513;47.650;10.720;2022-07-09T12:37:32;2.20;;;1.30;;
3006;SDS011;1513;47.650;10.720;2022-07-09T12:40:37;1.40;;;1.30;;
3006;SDS011;1513;47.650;10.720;2022-07-09T12:43:40;0.93;;;0.93;;
3006;SDS011;1513;47.650;10.720;2022-07-09T12:46:44;3.67;;;1.43;;
3006;SDS011;1513;47.650;10.720;2022-07-09T12:49:48;0.90;;;0.90;;
3006;SDS011;1513;47.650;10.720;2022-07-09T12:52:51;1.83;;;1.10;;
3006;SDS011;1513;47.650;10.720;2022-07-09T12:55:54;4.47;;;1.03;;
3006;SDS011;1513;47.650;10.720;2022-07-09T12:58:58;3.07;;;1.27;;
3006;SDS011;1513;47.650;10.720;2022-07-09T13:02:01;1.47;;;1.37;;
3006;SDS011;1513;47.650;10.720;2022-07-09T13:05:05;2.60;;;1.20;;
3006;SDS011;1513;47.650;10.720;2022-07-09T13:08:12;1.30;;;1.30;;
3006;SDS011;1513;47.650;10.720;2022-07-09T13:11:15;1.00;;;0.90;;
3006;SDS011;1513;47.650;10.720;2022-07-09T13:14:19;1.30;;;1.20;;
3006;SDS011;1513;47.650;10.720;2022-07-09T13:17:22;1.53;;;1.27;;
3006;SDS011;1513;47.650;10.720;2022-07-09T13:20:26;2.77;;;1.37;;
3006;SDS011;1513;47.650;10.720;2022-07-09T13:23:30;3.53;;;1.30;;
3006;SDS011;1513;47.650;10.720;2022-07-09T13:26:34;3.53;;;1.40;;
3006;SDS011;1513;47.650;10.720;2022-07-09T13:29:37;1.10;;;1.10;;
3006;SDS011;1513;47.650;10.720;2022-07-09T13:32:42;2.10;;;1.47;;
3006;SDS011;1513;47.650;10.720;2022-07-09T13:35:45;1.20;;;1.20;;
3006;SDS011;1513;47.650;10.720;2022-07-09T13:38:48;1.50;;;1.40;;
3006;SDS011;1513;47.650;10.720;2022-07-09T13:41:52;1.33;;;1.33;;
3006;SDS011;1513;47.650;10.720;2022-07-09T13:44:55;1.50;;;1.40;;
3006;SDS011;1513;47.650;10.720;2022-07-09T13:47:59;2.20;;;1.60;;
3006;SDS011;1513;47.650;10.720;2022-07-09T13:51:02;1.40;;;1.30;;
3006;SDS011;1513;47.650;10.720;2022-07-09T13:54:08;1.37;;;1.27;;
3006;SDS011;1513;47.650;10.720;2022-07-09T13:57:11;1.57;;;1.47;;
3006;SDS011;1513;47.650;10.720;2022-07-09T14:00:15;1.60;;;1.50;;
3006;SDS011;1513;47.650;10.720;2022-07-09T14:03:19;1.93;;;1.40;;
3006;SDS011;1513;47.650;10.720;2022-07-09T14:06:22;1.50;;;1.40;;
3006;SDS011;1513;47.650;10.720;2022-07-09T14:09:27;1.70;;;1.60;;
3006;SDS011;1513;47.650;10.720;2022-07-09T14:12:30;2.27;;;1.40;;
3006;SDS011;1513;47.650;10.720;2022-07-09T14:15:33;2.47;;;1.47;;
3006;SDS011;1513;47.650;10.720;2022-07-09T14:18:37;1.90;;;1.80;;
3006;SDS011;1513;47.650;10.720;2022-07-09T14:21:41;1.23;;;1.23;;
3006;SDS011;1513;47.650;10.720;2022-07-09T14:24:44;1.50;;;1.40;;
3006;SDS011;1513;47.650;10.720;2022-07-09T14:27:47;1.40;;;1.30;;
3006;SDS011;1513;47.650;10.720;2022-07-09T14:30:51;1.40;;;1.40;;
3006;SDS011;1513;47.650;10.720;2022-07-09T14:33:55;1.43;;;1.20;;
3006;SDS011;1513;47.650;10.720;2022-07-09T14:36:59;2.77;;;1.43;;
3006;SDS011;1513;47.650;10.720;2022-07-09T14:40:03;1.80;;;1.57;;
3006;SDS011;1513;47.650;10.720;2022-07-09T14:43:07;1.10;;;1.00;;
3006;SDS011;1513;47.650;10.720;2022-07-09T14:46:10;2.40;;;1.47;;
3006;SDS011;1513;47.650;10.720;2022-07-09T14:49:14;1.23;;;1.20;;
3006;SDS011;1513;47.650;10.720;2022-07-09T14:52:18;1.23;;;1.13;;
3006;SDS011;1513;47.650;10.720;2022-07-09T14:55:22;1.90;;;1.60;;
3006;SDS011;1513;47.650;10.720;2022-07-09T14:58:26;1.40;;;1.30;;
3006;SDS011;1513;47.650;10.720;2022-07-09T15:01:30;1.57;;;1.43;;
3006;SDS011;1513;47.650;10.720;2022-07-09T15:04:33;1.70;;;1.60;;
3006;SDS011;1513;47.650;10.720;2022-07-09T15:07:36;1.87;;;1.60;;
3006;SDS011;1513;47.650;10.720;2022-07-09T15:10:40;2.80;;;1.13;;
3006;SDS011;1513;47.650;10.720;2022-07-09T15:13:43;1.20;;;1.10;;
3006;SDS011;1513;47.650;10.720;2022-07-09T15:16:47;1.27;;;1.17;;
3006;SDS011;1513;47.650;10.720;2022-07-09T15:19:50;3.80;;;1.50;;
3006;SDS011;1513;47.650;10.720;2022-07-09T15:22:54;1.57;;;1.23;;
3006;SDS011;1513;47.650;10.720;2022-07-09T15:25:58;1.97;;;1.50;;
3006;SDS011;1513;47.650;10.720;2022-07-09T15:29:02;2.33;;;1.50;;
3006;SDS011;1513;47.650;10.720;2022-07-09T15:32:06;1.50;;;1.40;;
3006;SDS011;1513;47.650;10.720;2022-07-09T15:35:10;3.33;;;1.17;;
3006;SDS011;1513;47.650;10.720;2022-07-09T15:38:15;2.20;;;1.57;;
3006;SDS011;1513;47.650;10.720;2022-07-09T15:41:18;2.90;;;1.30;;
3006;SDS011;1513;47.650;10.720;2022-07-09T15:44:22;2.03;;;1.20;;
3006;SDS011;1513;47.650;10.720;2022-07-09T15:47:25;1.33;;;1.20;;
3006;SDS011;1513;47.650;10.720;2022-07-09T15:50:29;1.10;;;1.00;;
3006;SDS011;1513;47.650;10.720;2022-07-09T15:53:33;1.20;;;1.10;;
3006;SDS011;1513;47.650;10.720;2022-07-09T15:56:36;1.53;;;1.33;;
3006;SDS011;1513;47.650;10.720;2022-07-09T15:59:40;2.90;;;2.60;;
3006;SDS011;1513;47.650;10.720;2022-07-09T16:02:43;2.80;;;1.57;;
3006;SDS011;1513;47.650;10.720;2022-07-09T16:05:46;1.37;;;1.27;;
3006;SDS011;1513;47.650;10.720;2022-07-09T16:08:50;1.40;;;1.30;;
3006;SDS011;1513;47.650;10.720;2022-07-09T16:11:53;1.60;;;1.00;;
3006;SDS011;1513;47.650;10.720;2022-07-09T16:15:19;1.33;;;1.33;;
3006;SDS011;1513;47.650;10.720;2022-07-09T16:18:24;2.10;;;1.10;;
3006;SDS011;1513;47.650;10.720;2022-07-09T16:21:28;1.70;;;1.57;;
3006;SDS011;1513;47.650;10.720;2022-07-09T16:24:31;1.33;;;1.27;;
3006;SDS011;1513;47.650;10.720;2022-07-09T16:27:35;1.60;;;1.43;;
3006;SDS011;1513;47.650;10.720;2022-07-09T16:30:39;3.07;;;2.07;;
3006;SDS011;1513;47.650;10.720;2022-07-09T16:33:42;1.80;;;1.10;;
3006;SDS011;1513;47.650;10.720;2022-07-09T16:36:49;1.33;;;1.20;;
3006;SDS011;1513;47.650;10.720;2022-07-09T16:39:53;5.40;;;1.30;;
3006;SDS011;1513;47.650;10.720;2022-07-09T16:42:57;2.17;;;1.07;;
3006;SDS011;1513;47.650;10.720;2022-07-09T16:46:00;2.70;;;1.20;;
3006;SDS011;1513;47.650;10.720;2022-07-09T16:49:10;1.20;;;1.20;;
3006;SDS011;1513;47.650;10.720;2022-07-09T16:52:14;1.30;;;1.30;;
3006;SDS011;1513;47.650;10.720;2022-07-09T16:55:18;2.20;;;1.40;;
3006;SDS011;1513;47.650;10.720;2022-07-09T16:58:21;1.73;;;1.33;;
3006;SDS011;1513;47.650;10.720;2022-07-09T17:01:26;1.80;;;1.70;;
3006;SDS011;1513;47.650;10.720;2022-07-09T17:04:30;2.63;;;1.43;;
3006;SDS011;1513;47.650;10.720;2022-07-09T17:07:33;4.70;;;1.50;;
3006;SDS011;1513;47.650;10.720;2022-07-09T17:10:37;1.23;;;1.23;;
3006;SDS011;1513;47.650;10.720;2022-07-09T17:13:41;1.20;;;1.20;;
3006;SDS011;1513;47.650;10.720;2022-07-09T17:16:45;1.53;;;1.43;;
3006;SDS011;1513;47.650;10.720;2022-07-09T17:19:49;1.83;;;1.73;;
3006;SDS011;1513;47.650;10.720;2022-07-09T17:22:52;1.30;;;1.30;;
3006;SDS011;1513;47.650;10.720;2022-07-09T17:25:56;3.00;;;1.40;;
3006;SDS011;1513;47.650;10.720;2022-07-09T17:29:01;3.30;;;1.33;;
3006;SDS011;1513;47.650;10.720;2022-07-09T17:32:05;4.70;;;1.50;;
3006;SDS011;1513;47.650;10.720;2022-07-09T17:35:09;3.33;;;1.60;;
3006;SDS011;1513;47.650;10.720;2022-07-09T17:38:13;1.87;;;1.60;;
3006;SDS011;1513;47.650;10.720;2022-07-09T17:41:16;2.07;;;1.87;;
3006;SDS011;1513;47.650;10.720;2022-07-09T17:44:20;1.60;;;1.50;;
3006;SDS011;1513;47.650;10.720;2022-07-09T17:47:23;7.03;;;1.87;;
3006;SDS011;1513;47.650;10.720;2022-07-09T17:50:27;2.47;;;1.97;;
3006;SDS011;1513;47.650;10.720;2022-07-09T17:53:31;5.47;;;2.03;;
3006;SDS011;1513;47.650;10.720;2022-07-09T17:56:36;3.57;;;1.70;;
3006;SDS011;1513;47.650;10.720;2022-07-09T17:59:40;1.77;;;1.67;;
3006;SDS011;1513;47.650;10.720;2022-07-09T18:02:45;2.33;;;1.90;;
3006;SDS011;1513;47.650;10.720;2022-07-09T18:05:49;1.77;;;1.67;;
3006;SDS011;1513;47.650;10.720;2022-07-09T18:08:52;1.70;;;1.60;;
3006;SDS011;1513;47.650;10.720;2022-07-09T18:11:56;1.67;;;1.57;;
3006;SDS011;1513;47.650;10.720;2022-07-09T18:14:59;2.23;;;1.80;;
3006;SDS011;1513;47.650;10.720;2022-07-09T18:18:04;2.83;;;1.53;;
3006;SDS011;1513;47.650;10.720;2022-07-09T18:21:07;2.80;;;1.80;;
3006;SDS011;1513;47.650;10.720;2022-07-09T18:24:11;1.90;;;1.50;;
3006;SDS011;1513;47.650;10.720;2022-07-09T18:27:15;1.37;;;1.37;;
3006;SDS011;1513;47.650;10.720;2022-07-09T18:30:18;1.53;;;1.43;;
3006;SDS011;1513;47.650;10.720;2022-07-09T18:33:22;2.00;;;1.83;;
3006;SDS011;1513;47.650;10.720;2022-07-09T18:36:25;2.27;;;1.60;;
3006;SDS011;1513;47.650;10.720;2022-07-09T18:39:29;2.47;;;1.60;;
3006;SDS011;1513;47.650;10.720;2022-07-09T18:42:33;1.80;;;1.70;;
3006;SDS011;1513;47.650;10.720;2022-07-09T18:45:36;2.07;;;1.97;;
3006;SDS011;1513;47.650;10.720;2022-07-09T18:48:40;2.17;;;1.83;;
3006;SDS011;1513;47.650;10.720;2022-07-09T18:51:43;2.03;;;1.70;;
3006;SDS011;1513;47.650;10.720;2022-07-09T18:54:48;3.43;;;1.73;;